createdAt,value
2022-10-22T00:01:12.374Z,95970.78
2022-10-22T00:03:39.955Z,95976.28
2022-10-22T00:06:09.133Z,95964.69
2022-10-22T00:08:36.843Z,95978.66
2022-10-22T00:11:10.184Z,95967.16
2022-10-22T00:13:37.774Z,95965.56
2022-10-22T00:16:05.717Z,95963.28
2022-10-22T00:18:33.267Z,95961.78
2022-10-22T00:21:00.807Z,95966.00
2022-10-22T00:23:29.743Z,95952.22
2022-10-22T00:25:57.304Z,95959.78
2022-10-22T00:28:25.432Z,95958.81
2022-10-22T00:30:57.783Z,95953.72
2022-10-22T00:33:25.785Z,95957.19
2022-10-22T00:35:53.304Z,95948.22
2022-10-22T00:38:21.010Z,95936.41
2022-10-22T00:40:50.131Z,95942.13
2022-10-22T00:43:20.236Z,95937.88
2022-10-22T00:45:48.262Z,95939.88
2022-10-22T00:48:18.445Z,95945.50
2022-10-22T00:50:51.363Z,95945.63
2022-10-22T00:53:23.483Z,95942.59
2022-10-22T00:55:55.104Z,95946.81
2022-10-22T00:58:26.392Z,95940.09
2022-10-22T01:00:54.601Z,95942.41
2022-10-22T01:03:22.737Z,95947.91
2022-10-22T01:05:56.894Z,95957.38
2022-10-22T01:08:30.052Z,95952.13
2022-10-22T01:11:08.925Z,95954.41
2022-10-22T01:13:50.382Z,95947.13
2022-10-22T01:16:22.707Z,95940.41
2022-10-22T01:18:58.808Z,95950.69
2022-10-22T01:21:33.813Z,95944.94
2022-10-22T01:24:31.741Z,95948.47
2022-10-22T01:27:12.087Z,95943.34
2022-10-22T01:29:45.161Z,95943.63
2022-10-22T01:32:17.550Z,95932.28
2022-10-22T01:34:49.611Z,95933.84
2022-10-22T01:37:19.501Z,95929.84
2022-10-22T01:39:49.117Z,95941.38
2022-10-22T01:42:16.665Z,95941.03
2022-10-22T01:44:46.502Z,95941.44
2022-10-22T01:47:28.632Z,95948.78
2022-10-22T01:50:24.808Z,95950.56
2022-10-22T01:53:07.965Z,95954.91
2022-10-22T01:55:44.576Z,95956.53
2022-10-22T01:58:23.658Z,95952.53
2022-10-22T02:01:01.362Z,95943.78
2022-10-22T02:03:37.772Z,95930.09
2022-10-22T02:06:12.117Z,95922.28
2022-10-22T02:08:40.357Z,95911.25
2022-10-22T02:11:08.558Z,95908.63
2022-10-22T02:13:42.454Z,95915.41
2022-10-22T02:16:17.123Z,95917.38
2022-10-22T02:18:47.727Z,95915.31
2022-10-22T02:21:15.734Z,95913.13
2022-10-22T02:23:43.332Z,95922.59
2022-10-22T02:26:17.314Z,95937.03
2022-10-22T02:28:50.863Z,95936.03
2022-10-22T02:31:25.304Z,95938.22
2022-10-22T02:33:56.737Z,95935.34
2022-10-22T02:36:25.709Z,95937.84
2022-10-22T02:38:53.792Z,95936.63
2022-10-22T02:41:21.339Z,95942.38
2022-10-22T02:43:51.787Z,95942.34
2022-10-22T02:46:20.893Z,95945.28
2022-10-22T02:48:48.513Z,95946.91
2022-10-22T02:51:16.441Z,95948.69
2022-10-22T02:53:43.955Z,95951.78
2022-10-22T02:56:12.535Z,95959.59
2022-10-22T02:58:40.051Z,95956.22
2022-10-22T03:01:09.435Z,95953.28
2022-10-22T03:03:40.177Z,95945.44
2022-10-22T03:06:08.473Z,95929.31
2022-10-22T03:08:35.991Z,95942.16
2022-10-22T03:11:03.570Z,95955.03
2022-10-22T03:13:31.083Z,95951.13
2022-10-22T03:15:58.591Z,95958.81
2022-10-22T03:18:26.119Z,95954.56
2022-10-22T03:21:05.650Z,95954.06
2022-10-22T03:23:33.708Z,95956.00
2022-10-22T03:26:01.327Z,95956.19
2022-10-22T03:28:28.982Z,95948.22
2022-10-22T03:30:56.496Z,95953.50
2022-10-22T03:33:24.107Z,95943.56
2022-10-22T03:35:51.687Z,95944.47
2022-10-22T03:38:20.691Z,95931.56
2022-10-22T03:40:48.467Z,95917.94
2022-10-22T03:43:16.439Z,95949.38
2022-10-22T03:45:43.928Z,95963.78
2022-10-22T03:48:11.444Z,95963.59
2022-10-22T03:50:38.964Z,95984.44
2022-10-22T03:53:07.140Z,95988.22
2022-10-22T03:55:36.012Z,95995.34
2022-10-22T03:58:03.523Z,95993.66
2022-10-22T04:00:31.043Z,95994.50
2022-10-22T04:02:58.741Z,95996.22
2022-10-22T04:05:26.277Z,96003.19
2022-10-22T04:07:53.844Z,95997.13
2022-10-22T04:10:21.572Z,96001.81
2022-10-22T04:12:50.538Z,96000.63
2022-10-22T04:15:18.720Z,96006.59
2022-10-22T04:17:46.223Z,96008.72
2022-10-22T04:20:13.732Z,96003.84
2022-10-22T04:22:41.255Z,95994.41
2022-10-22T04:25:09.310Z,96000.56
2022-10-22T04:27:37.523Z,96007.59
2022-10-22T04:30:07.884Z,96018.19
2022-10-22T04:32:35.456Z,96015.88
2022-10-22T04:35:02.962Z,95994.38
2022-10-22T04:37:30.487Z,95997.28
2022-10-22T04:39:58.410Z,96000.22
2022-10-22T04:42:26.123Z,95993.41
2022-10-22T04:44:53.615Z,95999.34
2022-10-22T04:47:22.532Z,96001.41
2022-10-22T04:49:50.049Z,96017.00
2022-10-22T04:52:17.588Z,96027.84
2022-10-22T04:54:45.097Z,96028.50
2022-10-22T04:57:12.604Z,96038.53
2022-10-22T04:59:40.152Z,96047.47
2022-10-22T05:02:07.697Z,96045.28
2022-10-22T05:04:36.567Z,96033.59
2022-10-22T05:07:04.083Z,96030.22
2022-10-22T05:09:31.605Z,96035.84
2022-10-22T05:11:59.133Z,96054.38
2022-10-22T05:14:27.324Z,96064.06
2022-10-22T05:16:55.179Z,96075.28
2022-10-22T05:19:25.268Z,96064.59
2022-10-22T05:21:55.921Z,96065.72
2022-10-22T05:24:23.654Z,96085.97
2022-10-22T05:26:51.703Z,96094.00
2022-10-22T05:29:19.376Z,96086.94
2022-10-22T05:31:47.182Z,96085.03
2022-10-22T05:34:15.121Z,96068.38
2022-10-22T05:36:43.046Z,96078.56
2022-10-22T05:39:12.251Z,96088.06
2022-10-22T05:41:39.761Z,96084.41
2022-10-22T05:44:07.334Z,96101.63
2022-10-22T05:46:36.755Z,96105.56
2022-10-22T05:49:06.220Z,96103.50
2022-10-22T05:51:35.923Z,96103.22
2022-10-22T05:54:05.934Z,96087.16
2022-10-22T05:56:36.681Z,96079.69
2022-10-22T05:59:04.410Z,96073.72
2022-10-22T06:01:35.194Z,96068.19
2022-10-22T06:04:05.657Z,96074.28
2022-10-22T06:06:35.389Z,96078.47
2022-10-22T06:09:06.351Z,96083.41
2022-10-22T06:11:35.537Z,96084.22
2022-10-22T06:14:03.088Z,96092.88
2022-10-22T06:16:31.052Z,96105.19
2022-10-22T06:19:00.366Z,96103.50
2022-10-22T06:21:27.924Z,96116.41
2022-10-22T06:23:57.452Z,96108.22
2022-10-22T06:26:25.128Z,96108.94
2022-10-22T06:28:54.267Z,96102.94
2022-10-22T06:31:21.807Z,96101.25
2022-10-22T06:33:49.353Z,96097.53
2022-10-22T06:36:20.299Z,96115.97
2022-10-22T06:38:48.411Z,96113.22
2022-10-22T06:41:17.471Z,96110.19
2022-10-22T06:43:46.796Z,96112.00
2022-10-22T06:46:19.975Z,96122.72
2022-10-22T06:48:51.019Z,96127.47
2022-10-22T06:51:18.991Z,96138.47
2022-10-22T06:53:46.582Z,96147.53
2022-10-22T06:56:15.569Z,96157.84
2022-10-22T06:58:43.139Z,96146.72
2022-10-22T07:01:13.990Z,96154.16
2022-10-22T07:03:43.327Z,96159.91
2022-10-22T07:06:12.717Z,96159.81
2022-10-22T07:08:41.164Z,96164.03
2022-10-22T07:11:10.921Z,96171.09
2022-10-22T07:13:38.696Z,96177.25
2022-10-22T07:16:08.140Z,96197.00
2022-10-22T07:18:36.686Z,96207.13
2022-10-22T07:21:06.889Z,96208.25
2022-10-22T07:23:34.662Z,96217.50
2022-10-22T07:26:03.344Z,96215.25
2022-10-22T07:28:32.506Z,96224.91
2022-10-22T07:31:00.111Z,96224.22
2022-10-22T07:33:28.274Z,96227.28
2022-10-22T07:35:58.963Z,96219.56
2022-10-22T07:38:28.032Z,96231.69
2022-10-22T07:40:55.588Z,96227.16
2022-10-22T07:43:23.263Z,96228.28
2022-10-22T07:45:51.064Z,96221.75
2022-10-22T07:48:18.627Z,96233.56
2022-10-22T07:50:46.140Z,96245.56
2022-10-22T07:53:13.704Z,96246.91
2022-10-22T07:55:42.560Z,96245.25
2022-10-22T07:58:10.088Z,96257.06
2022-10-22T08:00:37.631Z,96262.38
2022-10-22T08:03:05.363Z,96266.69
2022-10-22T08:05:32.887Z,96255.84
2022-10-22T08:08:00.394Z,96264.38
2022-10-22T08:10:27.903Z,96268.66
2022-10-22T08:12:57.152Z,96275.56
2022-10-22T08:15:25.564Z,96275.78
2022-10-22T08:17:53.107Z,96280.63
2022-10-22T08:20:21.257Z,96277.50
2022-10-22T08:22:48.776Z,96267.16
2022-10-22T08:25:18.001Z,96266.72
2022-10-22T08:27:46.374Z,96277.03
2022-10-22T08:30:15.651Z,96271.03
2022-10-22T08:32:43.541Z,96273.88
2022-10-22T08:35:14.146Z,96272.91
2022-10-22T08:37:44.492Z,96283.59
2022-10-22T08:40:20.605Z,96284.72
2022-10-22T08:43:31.220Z,96281.94
2022-10-22T08:46:11.929Z,96292.84
2022-10-22T08:48:46.711Z,96285.50
2022-10-22T08:51:17.513Z,96277.06
2022-10-22T08:53:59.543Z,96273.81
2022-10-22T08:56:27.726Z,96274.41
2022-10-22T08:59:02.013Z,96262.38
2022-10-22T09:01:36.425Z,96269.38
2022-10-22T09:04:11.853Z,96271.34
2022-10-22T09:06:44.158Z,96285.75
2022-10-22T09:09:15.902Z,96289.28
2022-10-22T09:11:47.013Z,96300.31
2022-10-22T09:14:17.490Z,96302.47
2022-10-22T09:17:02.231Z,96306.22
2022-10-22T09:19:37.562Z,96314.47
2022-10-22T09:22:17.652Z,96317.78
2022-10-22T09:24:47.577Z,96305.13
2022-10-22T09:27:17.608Z,96310.31
2022-10-22T09:29:46.764Z,96320.16
2022-10-22T09:32:16.540Z,96322.72
2022-10-22T09:34:45.419Z,96330.91
2022-10-22T09:37:13.225Z,96329.34
2022-10-22T09:39:45.066Z,96319.97
2022-10-22T09:42:15.514Z,96320.94
2022-10-22T09:44:46.315Z,96324.28
2022-10-22T09:47:42.649Z,96323.91
2022-10-22T09:50:27.545Z,96324.25
2022-10-22T09:53:05.314Z,96323.31
2022-10-22T09:55:33.383Z,96325.19
2022-10-22T09:58:01.709Z,96328.09
2022-10-22T10:00:31.309Z,96330.41
2022-10-22T10:03:01.329Z,96325.88
2022-10-22T10:05:31.987Z,96331.13
2022-10-22T10:08:01.724Z,96335.97
2022-10-22T10:10:36.001Z,96334.50
2022-10-22T10:13:23.058Z,96334.09
2022-10-22T10:15:57.025Z,96336.81
2022-10-22T10:18:37.695Z,96329.50
2022-10-22T10:23:58.425Z,96340.38
2022-10-22T10:26:32.811Z,96335.91
2022-10-22T10:29:15.174Z,96324.09
2022-10-22T10:31:56.524Z,96325.72
2022-10-22T10:34:38.985Z,96335.25
2022-10-22T10:37:19.334Z,96326.53
2022-10-22T10:39:59.988Z,96332.22
2022-10-22T10:42:34.938Z,96323.56
2022-10-22T10:45:13.145Z,96326.78
2022-10-22T10:48:19.526Z,96323.91
2022-10-22T10:50:59.384Z,96324.22
2022-10-22T10:53:42.876Z,96322.19
2022-10-22T10:56:24.930Z,96329.91
2022-10-22T10:59:01.875Z,96329.16
2022-10-22T11:01:38.318Z,96332.94
2022-10-22T11:04:24.653Z,96322.78
2022-10-22T11:07:10.829Z,96333.72
2022-10-22T11:09:44.173Z,96326.97
2022-10-22T11:12:17.998Z,96325.69
2022-10-22T11:14:56.671Z,96317.97
2022-10-22T11:17:27.715Z,96330.78
2022-10-22T11:20:01.913Z,96327.06
2022-10-22T11:22:35.081Z,96330.81
2022-10-22T11:25:06.859Z,96331.25
2022-10-22T11:27:40.319Z,96335.81
2022-10-22T11:30:14.768Z,96342.47
2022-10-22T11:32:45.371Z,96338.47
2022-10-22T11:35:16.957Z,96330.84
2022-10-22T11:37:48.377Z,96334.44
2022-10-22T11:40:19.730Z,96326.69
2022-10-22T11:42:51.062Z,96339.56
2022-10-22T11:45:31.428Z,96327.78
2022-10-22T11:48:06.603Z,96322.41
2022-10-22T11:50:50.787Z,96321.69
2022-10-22T11:53:27.254Z,96319.53
2022-10-22T11:55:57.508Z,96319.13
2022-10-22T11:58:32.094Z,96325.41
2022-10-22T12:01:19.696Z,96321.63
2022-10-22T12:03:51.304Z,96313.72
2022-10-22T12:06:22.199Z,96318.22
2022-10-22T12:08:59.357Z,96318.25
2022-10-22T12:11:28.784Z,96319.63
2022-10-22T12:14:12.784Z,96323.41
2022-10-22T12:16:55.818Z,96318.53
2022-10-22T12:19:32.956Z,96318.44
2022-10-22T12:22:07.288Z,96319.28
2022-10-22T12:24:40.439Z,96316.50
2022-10-22T12:27:21.636Z,96312.66
2022-10-22T12:29:54.963Z,96309.06
2022-10-22T12:32:22.603Z,96311.47
2022-10-22T12:34:52.077Z,96308.16
2022-10-22T12:37:20.501Z,96307.63
2022-10-22T12:39:49.388Z,96308.31
2022-10-22T12:42:18.807Z,96295.09
2022-10-22T12:44:46.324Z,96307.06
2022-10-22T12:47:17.564Z,96309.56
2022-10-22T12:49:48.162Z,96308.53
2022-10-22T12:52:19.207Z,96311.00
2022-10-22T12:54:52.320Z,96301.75
2022-10-22T12:57:21.121Z,96304.78
2022-10-22T12:59:50.884Z,96302.38
2022-10-22T13:02:22.588Z,96302.47
2022-10-22T13:05:16.987Z,96298.47
2022-10-22T13:07:48.568Z,96304.28
2022-10-22T13:10:21.051Z,96315.97
2022-10-22T13:12:54.960Z,96304.09
2022-10-22T13:15:34.493Z,96299.84
2022-10-22T13:18:15.737Z,96301.81
2022-10-22T13:20:52.863Z,96296.53
2022-10-22T13:23:22.285Z,96293.84
2022-10-22T13:26:01.042Z,96299.13
2022-10-22T13:28:30.091Z,96298.00
2022-10-22T13:31:00.009Z,96285.31
2022-10-22T13:33:31.394Z,96299.59
2022-10-22T13:35:59.272Z,96300.28
2022-10-22T13:38:28.388Z,96299.72
2022-10-22T13:40:56.618Z,96297.16
2022-10-22T13:43:26.093Z,96297.91
2022-10-22T13:45:56.670Z,96289.97
2022-10-22T13:48:26.414Z,96297.72
2022-10-22T13:50:54.513Z,96294.66
2022-10-22T13:53:24.943Z,96293.97
2022-10-22T13:55:52.571Z,96289.59
2022-10-22T13:58:23.827Z,96299.00
2022-10-22T14:00:55.536Z,96290.34
2022-10-22T14:03:27.187Z,96295.69
2022-10-22T14:05:54.844Z,96303.72
2022-10-22T14:08:24.145Z,96303.88
2022-10-22T14:10:51.639Z,96299.50
2022-10-22T14:13:20.621Z,96306.06
2022-10-22T14:15:51.239Z,96299.13
2022-10-22T14:18:25.349Z,96297.66
2022-10-22T14:20:54.923Z,96298.88
2022-10-22T14:23:24.344Z,96298.03
2022-10-22T14:25:51.977Z,96297.84
2022-10-22T14:28:19.912Z,96302.53
2022-10-22T14:30:48.102Z,96303.06
2022-10-22T14:33:18.196Z,96304.66
2022-10-22T14:35:48.703Z,96299.22
2022-10-22T14:38:16.596Z,96308.97
2022-10-22T14:40:44.994Z,96309.56
2022-10-22T14:43:13.799Z,96307.28
2022-10-22T14:45:41.319Z,96300.03
2022-10-22T14:48:09.222Z,96304.94
2022-10-22T14:50:36.810Z,96304.88
2022-10-22T14:53:05.905Z,96313.38
2022-10-22T14:55:33.439Z,96325.41
2022-10-22T14:58:00.989Z,96322.81
2022-10-22T15:00:28.683Z,96320.81
2022-10-22T15:02:56.667Z,96316.44
2022-10-22T15:05:25.624Z,96317.38
2022-10-22T15:07:53.120Z,96322.72
2022-10-22T15:10:22.034Z,96327.34
2022-10-22T15:12:49.542Z,96323.44
2022-10-22T15:15:18.245Z,96327.53
2022-10-22T15:17:48.139Z,96330.03
2022-10-22T15:20:15.631Z,96329.16
2022-10-22T15:22:43.442Z,96333.72
2022-10-22T15:25:11.282Z,96335.19
2022-10-22T15:27:40.170Z,96354.59
2022-10-22T15:30:09.067Z,96349.66
2022-10-22T15:32:36.591Z,96344.38
2022-10-22T15:35:05.840Z,96348.88
2022-10-22T15:37:33.365Z,96349.25
2022-10-22T15:40:03.651Z,96358.69
2022-10-22T15:42:31.228Z,96362.19
2022-10-22T15:45:02.149Z,96359.00
2022-10-22T15:47:31.149Z,96365.75
2022-10-22T15:49:59.047Z,96365.78
2022-10-22T15:52:26.598Z,96366.19
2022-10-22T15:54:54.375Z,96377.16
2022-10-22T15:57:21.946Z,96369.09
2022-10-22T15:59:50.051Z,96377.72
2022-10-22T16:02:18.945Z,96375.41
2022-10-22T16:04:46.477Z,96375.63
2022-10-22T16:07:13.995Z,96376.91
2022-10-22T16:09:41.522Z,96379.81
2022-10-22T16:12:09.749Z,96387.84
2022-10-22T16:14:37.703Z,96379.63
2022-10-22T16:17:05.237Z,96377.94
2022-10-22T16:19:34.220Z,96382.50
2022-10-22T16:22:03.291Z,96384.97
2022-10-22T16:24:30.808Z,96391.97
2022-10-22T16:26:58.595Z,96390.28
2022-10-22T16:29:26.127Z,96400.34
2022-10-22T16:31:53.630Z,96401.31
2022-10-22T16:34:21.157Z,96400.69
2022-10-22T16:39:24.381Z,96405.88
2022-10-22T16:41:51.924Z,96414.06
2022-10-22T16:44:19.433Z,96408.28
2022-10-22T16:46:46.952Z,96419.81
2022-10-22T16:49:14.504Z,96419.38
2022-10-22T16:51:42.052Z,96438.22
2022-10-22T16:54:13.072Z,96437.81
2022-10-22T16:56:41.061Z,96438.59
2022-10-22T16:59:08.619Z,96440.63
2022-10-22T17:01:40.607Z,96443.69
2022-10-22T17:04:08.816Z,96438.06
2022-10-22T17:06:36.632Z,96434.03
2022-10-22T17:09:05.159Z,96444.56
2022-10-22T17:11:37.014Z,96443.84
2022-10-22T17:14:07.459Z,96442.00
2022-10-22T17:16:35.103Z,96445.97
2022-10-22T17:19:04.595Z,96451.91
2022-10-22T17:21:32.195Z,96457.41
2022-10-22T17:23:59.743Z,96458.94
2022-10-22T17:26:27.711Z,96464.69
2022-10-22T17:28:56.927Z,96472.72
2022-10-22T17:31:26.407Z,96468.03
2022-10-22T17:33:55.886Z,96469.28
2022-10-22T17:36:25.052Z,96473.84
2022-10-22T17:38:55.175Z,96472.13
2022-10-22T17:41:24.908Z,96472.91
2022-10-22T17:43:52.689Z,96475.69
2022-10-22T17:46:23.530Z,96474.31
2022-10-22T17:48:52.594Z,96481.75
2022-10-22T17:51:21.282Z,96486.72
2022-10-22T17:53:50.158Z,96481.47
2022-10-22T17:56:19.915Z,96482.91
2022-10-22T17:58:47.652Z,96482.34
2022-10-22T18:01:23.464Z,96478.03
2022-10-22T18:03:51.137Z,96477.44
2022-10-22T18:06:18.801Z,96474.47
2022-10-22T18:08:46.632Z,96477.22
2022-10-22T18:11:17.203Z,96479.06
2022-10-22T18:13:44.920Z,96475.09
2022-10-22T18:16:13.350Z,96476.50
2022-10-22T18:18:42.283Z,96473.72
2022-10-22T18:21:09.775Z,96472.13
2022-10-22T18:23:37.695Z,96469.03
2022-10-22T18:26:06.140Z,96470.00
2022-10-22T18:28:33.942Z,96477.66
2022-10-22T18:31:06.771Z,96474.81
2022-10-22T18:33:35.213Z,96481.13
2022-10-22T18:36:06.773Z,96477.53
2022-10-22T18:38:34.612Z,96479.66
2022-10-22T18:41:02.252Z,96482.47
2022-10-22T18:43:29.769Z,96488.75
2022-10-22T18:45:57.333Z,96491.88
2022-10-22T18:48:24.868Z,96497.13
2022-10-22T18:51:00.277Z,96498.81
2022-10-22T18:53:29.536Z,96500.28
2022-10-22T18:55:57.070Z,96499.16
2022-10-22T18:58:24.627Z,96502.66
2022-10-22T19:00:52.734Z,96498.16
2022-10-22T19:03:20.294Z,96503.09
2022-10-22T19:05:50.440Z,96503.63
2022-10-22T19:08:18.636Z,96503.06
2022-10-22T19:10:48.164Z,96501.16
2022-10-22T19:13:16.892Z,96507.25
2022-10-22T19:15:44.555Z,96507.34
2022-10-22T19:18:15.009Z,96512.09
2022-10-22T19:20:42.632Z,96512.53
2022-10-22T19:23:10.140Z,96514.06
2022-10-22T19:25:37.799Z,96516.16
2022-10-22T19:28:06.952Z,96523.88
2022-10-22T19:30:34.512Z,96509.09
2022-10-22T19:33:02.027Z,96511.13
2022-10-22T19:35:30.706Z,96498.81
2022-10-22T19:37:58.225Z,96501.31
2022-10-22T19:40:27.198Z,96507.00
2022-10-22T19:42:54.873Z,96506.16
2022-10-22T19:45:23.698Z,96507.81
2022-10-22T19:47:51.214Z,96511.69
2022-10-22T19:50:18.925Z,96510.66
2022-10-22T19:52:46.457Z,96505.84
2022-10-22T19:55:14.016Z,96504.72
2022-10-22T19:57:41.749Z,96513.94
2022-10-22T20:00:10.548Z,96514.09
2022-10-22T20:02:39.517Z,96515.72
2022-10-22T20:05:07.735Z,96514.94
2022-10-22T20:07:35.273Z,96514.13
2022-10-22T20:10:02.999Z,96513.34
2022-10-22T20:12:30.503Z,96516.06
2022-10-22T20:14:58.253Z,96524.56
2022-10-22T20:17:25.727Z,96517.22
2022-10-22T20:19:56.390Z,96512.59
2022-10-22T20:22:23.927Z,96519.31
2022-10-22T20:24:51.663Z,96518.13
2022-10-22T20:27:19.232Z,96519.97
2022-10-22T20:29:46.744Z,96529.56
2022-10-22T20:32:14.308Z,96529.28
2022-10-22T20:34:42.424Z,96526.25
2022-10-22T20:37:11.362Z,96524.63
2022-10-22T20:39:38.879Z,96525.63
2022-10-22T20:42:06.466Z,96527.34
2022-10-22T20:44:34.019Z,96517.84
2022-10-22T20:47:01.708Z,96520.84
2022-10-22T20:49:29.389Z,96522.63
2022-10-22T20:51:56.900Z,96526.19
2022-10-22T20:54:25.807Z,96533.00
2022-10-22T20:56:53.548Z,96541.03
2022-10-22T20:59:21.841Z,96538.69
2022-10-22T21:01:50.922Z,96539.69
2022-10-22T21:04:20.227Z,96543.34
2022-10-22T21:06:50.081Z,96539.84
2022-10-22T21:09:17.723Z,96543.31
2022-10-22T21:11:47.156Z,96538.50
2022-10-22T21:14:16.690Z,96543.00
2022-10-22T21:16:46.430Z,96544.59
2022-10-22T21:19:13.965Z,96541.28
2022-10-22T21:21:41.785Z,96532.31
2022-10-22T21:24:09.652Z,96539.47
2022-10-22T21:26:37.750Z,96533.88
2022-10-22T21:29:06.626Z,96542.19
2022-10-22T21:31:34.455Z,96546.69
2022-10-22T21:34:02.042Z,96544.38
2022-10-22T21:36:29.548Z,96540.38
2022-10-22T21:38:57.109Z,96535.69
2022-10-22T21:41:25.332Z,96551.66
2022-10-22T21:43:52.892Z,96539.00
2022-10-22T21:46:23.428Z,96546.28
2022-10-22T21:48:54.234Z,96541.28
2022-10-22T21:51:23.444Z,96540.09
2022-10-22T21:56:22.528Z,96537.19
2022-10-22T21:58:50.175Z,96540.75
2022-10-22T22:01:18.352Z,96542.00
2022-10-22T22:03:49.108Z,96542.16
2022-10-22T22:06:21.251Z,96544.78
2022-10-22T22:08:49.811Z,96534.94
2022-10-22T22:11:19.737Z,96532.94
2022-10-22T22:13:48.617Z,96537.25
2022-10-22T22:16:21.208Z,96540.84
2022-10-22T22:18:53.011Z,96527.41
2022-10-22T22:21:21.887Z,96527.91
2022-10-22T22:23:50.574Z,96529.81
2022-10-22T22:26:25.205Z,96516.81
2022-10-22T22:28:56.386Z,96530.16
2022-10-22T22:31:25.882Z,96523.69
2022-10-22T22:33:58.943Z,96527.97
2022-10-22T22:36:26.468Z,96526.22
2022-10-22T22:38:55.188Z,96526.22
2022-10-22T22:41:23.008Z,96528.63
2022-10-22T22:43:50.583Z,96530.06
2022-10-22T22:46:18.223Z,96528.06
2022-10-22T22:48:47.937Z,96521.75
2022-10-22T22:51:17.180Z,96521.69
2022-10-22T22:53:45.860Z,96519.66
2022-10-22T22:56:16.176Z,96515.44
2022-10-22T22:58:44.445Z,96509.63
2022-10-22T23:01:15.660Z,96509.47
2022-10-22T23:03:44.174Z,96511.03
2022-10-22T23:06:12.068Z,96508.00
2022-10-22T23:08:41.421Z,96504.53
2022-10-22T23:11:11.542Z,96511.88
2022-10-22T23:13:39.736Z,96520.44
2022-10-22T23:16:08.503Z,96514.31
2022-10-22T23:18:36.726Z,96513.75
2022-10-22T23:21:06.452Z,96514.72
2022-10-22T23:23:34.545Z,96507.22
2022-10-22T23:26:04.129Z,96495.88
2022-10-22T23:28:31.778Z,96499.69
2022-10-22T23:30:59.310Z,96497.41
2022-10-22T23:33:27.335Z,96494.25
2022-10-22T23:35:54.827Z,96485.56
2022-10-22T23:38:22.399Z,96476.63
2022-10-22T23:40:55.088Z,96483.72
2022-10-22T23:43:24.020Z,96483.09
2022-10-22T23:45:51.584Z,96476.31
2022-10-22T23:48:19.517Z,96482.47
2022-10-22T23:50:47.235Z,96481.16
2022-10-22T23:53:14.821Z,96475.81
2022-10-22T23:55:44.605Z,96477.25
2022-10-22T23:58:12.891Z,96482.13
